sensor_id;sensor_type;location;lat;lon;timestamp;P1;durP1;ratioP1;P2;durP2;ratioP2
5279;SDS011;2663;53.588;10.010;2023-03-12T00:01:59;4.60;;;4.03;;
5279;SDS011;2663;53.588;10.010;2023-03-12T00:04:26;6.43;;;4.00;;
5279;SDS011;2663;53.588;10.010;2023-03-12T00:06:53;7.00;;;4.50;;
5279;SDS011;2663;53.588;10.010;2023-03-12T00:09:20;8.50;;;4.40;;
5279;SDS011;2663;53.588;10.010;2023-03-12T00:11:46;5.90;;;4.00;;
5279;SDS011;2663;53.588;10.010;2023-03-12T00:14:13;6.70;;;4.63;;
5279;SDS011;2663;53.588;10.010;2023-03-12T00:16:40;6.93;;;4.60;;
5279;SDS011;2663;53.588;10.010;2023-03-12T00:19:08;6.23;;;4.20;;
5279;SDS011;2663;53.588;10.010;2023-03-12T00:21:38;8.97;;;4.67;;
5279;SDS011;2663;53.588;10.010;2023-03-12T00:24:05;9.10;;;5.03;;
5279;SDS011;2663;53.588;10.010;2023-03-12T00:26:32;6.13;;;4.13;;
5279;SDS011;2663;53.588;10.010;2023-03-12T00:28:59;5.37;;;3.83;;
5279;SDS011;2663;53.588;10.010;2023-03-12T00:31:27;6.27;;;4.20;;
5279;SDS011;2663;53.588;10.010;2023-03-12T00:33:55;7.80;;;4.03;;
5279;SDS011;2663;53.588;10.010;2023-03-12T00:36:22;6.70;;;3.80;;
5279;SDS011;2663;53.588;10.010;2023-03-12T00:38:54;6.77;;;4.10;;
5279;SDS011;2663;53.588;10.010;2023-03-12T00:41:22;5.80;;;4.07;;
5279;SDS011;2663;53.588;10.010;2023-03-12T00:43:50;5.93;;;3.77;;
5279;SDS011;2663;53.588;10.010;2023-03-12T00:46:17;4.83;;;3.80;;
5279;SDS011;2663;53.588;10.010;2023-03-12T00:48:44;6.30;;;4.83;;
5279;SDS011;2663;53.588;10.010;2023-03-12T00:51:11;9.37;;;4.70;;
5279;SDS011;2663;53.588;10.010;2023-03-12T00:53:38;6.33;;;3.93;;
5279;SDS011;2663;53.588;10.010;2023-03-12T00:56:05;4.37;;;3.97;;
5279;SDS011;2663;53.588;10.010;2023-03-12T00:58:32;7.07;;;4.40;;
5279;SDS011;2663;53.588;10.010;2023-03-12T01:00:59;4.37;;;3.97;;
5279;SDS011;2663;53.588;10.010;2023-03-12T01:03:25;7.27;;;4.67;;
5279;SDS011;2663;53.588;10.010;2023-03-12T01:05:52;5.67;;;4.50;;
5279;SDS011;2663;53.588;10.010;2023-03-12T01:08:22;6.17;;;5.00;;
5279;SDS011;2663;53.588;10.010;2023-03-12T01:10:49;12.80;;;5.20;;
5279;SDS011;2663;53.588;10.010;2023-03-12T01:13:16;6.73;;;5.20;;
5279;SDS011;2663;53.588;10.010;2023-03-12T01:15:43;8.00;;;4.63;;
5279;SDS011;2663;53.588;10.010;2023-03-12T01:18:09;6.73;;;5.23;;
5279;SDS011;2663;53.588;10.010;2023-03-12T01:20:36;4.93;;;4.53;;
5279;SDS011;2663;53.588;10.010;2023-03-12T01:23:03;9.47;;;5.30;;
5279;SDS011;2663;53.588;10.010;2023-03-12T01:25:30;11.23;;;4.70;;
5279;SDS011;2663;53.588;10.010;2023-03-12T01:27:59;8.60;;;5.90;;
5279;SDS011;2663;53.588;10.010;2023-03-12T01:30:25;8.03;;;5.10;;
5279;SDS011;2663;53.588;10.010;2023-03-12T01:32:52;5.20;;;4.40;;
5279;SDS011;2663;53.588;10.010;2023-03-12T01:35:19;6.43;;;5.53;;
5279;SDS011;2663;53.588;10.010;2023-03-12T01:37:46;5.80;;;5.20;;
5279;SDS011;2663;53.588;10.010;2023-03-12T01:40:13;8.87;;;5.70;;
5279;SDS011;2663;53.588;10.010;2023-03-12T01:42:41;8.40;;;5.73;;
5279;SDS011;2663;53.588;10.010;2023-03-12T01:48:13;8.30;;;6.20;;
5279;SDS011;2663;53.588;10.010;2023-03-12T01:50:42;6.80;;;5.43;;
5279;SDS011;2663;53.588;10.010;2023-03-12T01:53:09;9.10;;;5.33;;
5279;SDS011;2663;53.588;10.010;2023-03-12T01:55:36;13.00;;;5.23;;
5279;SDS011;2663;53.588;10.010;2023-03-12T01:58:03;25.07;;;6.30;;
5279;SDS011;2663;53.588;10.010;2023-03-12T02:00:31;7.90;;;5.60;;
5279;SDS011;2663;53.588;10.010;2023-03-12T02:02:59;8.13;;;5.57;;
5279;SDS011;2663;53.588;10.010;2023-03-12T02:05:34;11.40;;;5.93;;
5279;SDS011;2663;53.588;10.010;2023-03-12T02:08:09;5.40;;;4.90;;
5279;SDS011;2663;53.588;10.010;2023-03-12T02:10:36;7.63;;;5.60;;
5279;SDS011;2663;53.588;10.010;2023-03-12T02:13:03;9.87;;;6.37;;
5279;SDS011;2663;53.588;10.010;2023-03-12T02:15:31;6.73;;;5.50;;
5279;SDS011;2663;53.588;10.010;2023-03-12T02:18:01;8.33;;;5.77;;
5279;SDS011;2663;53.588;10.010;2023-03-12T02:20:44;13.13;;;7.33;;
5279;SDS011;2663;53.588;10.010;2023-03-12T02:23:29;6.80;;;6.10;;
5279;SDS011;2663;53.588;10.010;2023-03-12T02:26:01;14.07;;;6.60;;
5279;SDS011;2663;53.588;10.010;2023-03-12T02:28:30;19.70;;;10.23;;
5279;SDS011;2663;53.588;10.010;2023-03-12T02:31:07;12.93;;;6.80;;
5279;SDS011;2663;53.588;10.010;2023-03-12T02:33:35;16.80;;;7.57;;
5279;SDS011;2663;53.588;10.010;2023-03-12T02:36:02;10.90;;;7.53;;
5279;SDS011;2663;53.588;10.010;2023-03-12T02:38:37;15.17;;;8.87;;
5279;SDS011;2663;53.588;10.010;2023-03-12T02:41:33;9.50;;;7.33;;
5279;SDS011;2663;53.588;10.010;2023-03-12T02:46:29;15.53;;;8.60;;
5279;SDS011;2663;53.588;10.010;2023-03-12T02:49:01;14.60;;;7.50;;
5279;SDS011;2663;53.588;10.010;2023-03-12T02:51:29;11.57;;;9.10;;
5279;SDS011;2663;53.588;10.010;2023-03-12T02:53:55;9.57;;;6.27;;
5279;SDS011;2663;53.588;10.010;2023-03-12T02:56:23;27.70;;;8.00;;
5279;SDS011;2663;53.588;10.010;2023-03-12T02:58:51;11.47;;;7.50;;
5279;SDS011;2663;53.588;10.010;2023-03-12T03:01:18;9.13;;;6.27;;
5279;SDS011;2663;53.588;10.010;2023-03-12T03:03:46;17.33;;;7.53;;
5279;SDS011;2663;53.588;10.010;2023-03-12T03:06:13;11.23;;;7.57;;
5279;SDS011;2663;53.588;10.010;2023-03-12T03:08:40;6.40;;;5.20;;
5279;SDS011;2663;53.588;10.010;2023-03-12T03:11:07;11.07;;;5.30;;
5279;SDS011;2663;53.588;10.010;2023-03-12T03:13:34;10.13;;;6.87;;
5279;SDS011;2663;53.588;10.010;2023-03-12T03:16:01;9.30;;;5.07;;
5279;SDS011;2663;53.588;10.010;2023-03-12T03:18:29;14.50;;;6.67;;
5279;SDS011;2663;53.588;10.010;2023-03-12T03:20:57;11.63;;;5.90;;
5279;SDS011;2663;53.588;10.010;2023-03-12T03:23:29;7.40;;;5.20;;
5279;SDS011;2663;53.588;10.010;2023-03-12T03:25:56;7.47;;;4.93;;
5279;SDS011;2663;53.588;10.010;2023-03-12T03:28:23;9.53;;;5.17;;
5279;SDS011;2663;53.588;10.010;2023-03-12T03:30:52;8.43;;;4.70;;
5279;SDS011;2663;53.588;10.010;2023-03-12T03:33:23;7.90;;;4.53;;
5279;SDS011;2663;53.588;10.010;2023-03-12T03:35:50;12.93;;;5.00;;
5279;SDS011;2663;53.588;10.010;2023-03-12T03:38:17;8.23;;;4.73;;
5279;SDS011;2663;53.588;10.010;2023-03-12T03:40:43;6.60;;;5.50;;
5279;SDS011;2663;53.588;10.010;2023-03-12T03:43:10;8.73;;;4.47;;
5279;SDS011;2663;53.588;10.010;2023-03-12T03:45:37;7.10;;;4.60;;
5279;SDS011;2663;53.588;10.010;2023-03-12T03:48:04;6.40;;;5.37;;
5279;SDS011;2663;53.588;10.010;2023-03-12T03:50:30;6.07;;;4.53;;
5279;SDS011;2663;53.588;10.010;2023-03-12T03:52:57;11.97;;;5.60;;
5279;SDS011;2663;53.588;10.010;2023-03-12T03:55:24;10.40;;;5.13;;
5279;SDS011;2663;53.588;10.010;2023-03-12T03:57:51;6.47;;;3.87;;
5279;SDS011;2663;53.588;10.010;2023-03-12T04:00:17;10.27;;;5.93;;
5279;SDS011;2663;53.588;10.010;2023-03-12T04:02:44;5.00;;;4.47;;
5279;SDS011;2663;53.588;10.010;2023-03-12T04:05:11;6.90;;;5.13;;
5279;SDS011;2663;53.588;10.010;2023-03-12T04:07:37;6.27;;;5.20;;
5279;SDS011;2663;53.588;10.010;2023-03-12T04:10:04;6.20;;;5.60;;
5279;SDS011;2663;53.588;10.010;2023-03-12T04:12:31;12.70;;;5.70;;
5279;SDS011;2663;53.588;10.010;2023-03-12T04:14:58;12.03;;;5.57;;
5279;SDS011;2663;53.588;10.010;2023-03-12T04:17:24;11.30;;;4.90;;
5279;SDS011;2663;53.588;10.010;2023-03-12T04:19:51;5.67;;;4.93;;
5279;SDS011;2663;53.588;10.010;2023-03-12T04:22:18;10.10;;;4.80;;
5279;SDS011;2663;53.588;10.010;2023-03-12T04:24:44;7.77;;;5.20;;
5279;SDS011;2663;53.588;10.010;2023-03-12T04:27:11;8.70;;;4.83;;
5279;SDS011;2663;53.588;10.010;2023-03-12T04:29:38;6.90;;;4.83;;
5279;SDS011;2663;53.588;10.010;2023-03-12T04:32:05;9.93;;;5.20;;
5279;SDS011;2663;53.588;10.010;2023-03-12T04:34:32;6.53;;;5.13;;
5279;SDS011;2663;53.588;10.010;2023-03-12T04:37:00;10.50;;;5.10;;
5279;SDS011;2663;53.588;10.010;2023-03-12T04:39:28;13.03;;;5.47;;
5279;SDS011;2663;53.588;10.010;2023-03-12T04:41:55;7.27;;;5.03;;
5279;SDS011;2663;53.588;10.010;2023-03-12T04:44:21;9.80;;;4.70;;
5279;SDS011;2663;53.588;10.010;2023-03-12T04:46:48;14.67;;;5.37;;
5279;SDS011;2663;53.588;10.010;2023-03-12T04:49:15;5.50;;;5.00;;
5279;SDS011;2663;53.588;10.010;2023-03-12T04:51:41;18.33;;;5.53;;
5279;SDS011;2663;53.588;10.010;2023-03-12T04:54:08;6.80;;;5.10;;
5279;SDS011;2663;53.588;10.010;2023-03-12T04:56:35;5.23;;;4.43;;
5279;SDS011;2663;53.588;10.010;2023-03-12T04:59:01;8.97;;;5.40;;
5279;SDS011;2663;53.588;10.010;2023-03-12T05:01:29;10.20;;;5.57;;
5279;SDS011;2663;53.588;10.010;2023-03-12T05:03:57;9.10;;;4.80;;
5279;SDS011;2663;53.588;10.010;2023-03-12T05:06:24;7.50;;;4.80;;
5279;SDS011;2663;53.588;10.010;2023-03-12T05:08:51;11.80;;;5.57;;
5279;SDS011;2663;53.588;10.010;2023-03-12T05:11:18;7.80;;;5.20;;
5279;SDS011;2663;53.588;10.010;2023-03-12T05:13:45;13.03;;;5.07;;
5279;SDS011;2663;53.588;10.010;2023-03-12T05:16:12;8.13;;;4.87;;
5279;SDS011;2663;53.588;10.010;2023-03-12T05:18:40;7.60;;;4.83;;
5279;SDS011;2663;53.588;10.010;2023-03-12T05:21:08;9.03;;;5.80;;
5279;SDS011;2663;53.588;10.010;2023-03-12T05:23:38;16.47;;;5.23;;
5279;SDS011;2663;53.588;10.010;2023-03-12T05:26:14;10.50;;;5.60;;
5279;SDS011;2663;53.588;10.010;2023-03-12T05:28:42;8.73;;;5.30;;
5279;SDS011;2663;53.588;10.010;2023-03-12T05:31:09;7.40;;;5.50;;
5279;SDS011;2663;53.588;10.010;2023-03-12T05:33:37;7.57;;;5.70;;
5279;SDS011;2663;53.588;10.010;2023-03-12T05:36:04;9.67;;;6.10;;
5279;SDS011;2663;53.588;10.010;2023-03-12T05:38:31;5.90;;;5.27;;
5279;SDS011;2663;53.588;10.010;2023-03-12T05:40:58;5.30;;;4.80;;
5279;SDS011;2663;53.588;10.010;2023-03-12T05:43:25;7.47;;;5.60;;
5279;SDS011;2663;53.588;10.010;2023-03-12T05:45:52;10.77;;;5.83;;
5279;SDS011;2663;53.588;10.010;2023-03-12T05:48:23;9.87;;;6.30;;
5279;SDS011;2663;53.588;10.010;2023-03-12T05:50:49;9.43;;;5.83;;
5279;SDS011;2663;53.588;10.010;2023-03-12T05:53:16;10.40;;;5.20;;
5279;SDS011;2663;53.588;10.010;2023-03-12T05:55:43;6.27;;;5.67;;
5279;SDS011;2663;53.588;10.010;2023-03-12T05:58:09;11.43;;;5.60;;
5279;SDS011;2663;53.588;10.010;2023-03-12T06:00:36;8.07;;;5.60;;
5279;SDS011;2663;53.588;10.010;2023-03-12T06:03:04;9.80;;;5.27;;
5279;SDS011;2663;53.588;10.010;2023-03-12T06:05:31;10.80;;;6.40;;
5279;SDS011;2663;53.588;10.010;2023-03-12T06:07:59;15.67;;;6.20;;
5279;SDS011;2663;53.588;10.010;2023-03-12T06:10:26;14.30;;;5.97;;
5279;SDS011;2663;53.588;10.010;2023-03-12T06:12:54;11.40;;;6.53;;
5279;SDS011;2663;53.588;10.010;2023-03-12T06:15:20;13.53;;;6.90;;
5279;SDS011;2663;53.588;10.010;2023-03-12T06:17:47;14.70;;;7.00;;
5279;SDS011;2663;53.588;10.010;2023-03-12T06:20:14;21.67;;;7.20;;
5279;SDS011;2663;53.588;10.010;2023-03-12T06:22:41;13.87;;;6.73;;
5279;SDS011;2663;53.588;10.010;2023-03-12T06:25:07;15.17;;;7.30;;
5279;SDS011;2663;53.588;10.010;2023-03-12T06:27:34;15.73;;;7.07;;
5279;SDS011;2663;53.588;10.010;2023-03-12T06:30:02;16.13;;;7.50;;
5279;SDS011;2663;53.588;10.010;2023-03-12T06:32:29;19.47;;;6.83;;
5279;SDS011;2663;53.588;10.010;2023-03-12T06:34:56;10.80;;;6.40;;
5279;SDS011;2663;53.588;10.010;2023-03-12T06:37:26;12.43;;;7.17;;
5279;SDS011;2663;53.588;10.010;2023-03-12T06:39:53;14.00;;;7.50;;
5279;SDS011;2663;53.588;10.010;2023-03-12T06:42:19;9.30;;;6.10;;
5279;SDS011;2663;53.588;10.010;2023-03-12T06:44:48;12.00;;;7.50;;
5279;SDS011;2663;53.588;10.010;2023-03-12T06:47:15;15.40;;;7.27;;
5279;SDS011;2663;53.588;10.010;2023-03-12T06:49:43;10.17;;;6.53;;
5279;SDS011;2663;53.588;10.010;2023-03-12T06:52:09;14.53;;;7.23;;
5279;SDS011;2663;53.588;10.010;2023-03-12T06:54:36;9.53;;;6.40;;
5279;SDS011;2663;53.588;10.010;2023-03-12T06:57:03;10.33;;;6.10;;
5279;SDS011;2663;53.588;10.010;2023-03-12T06:59:30;11.43;;;6.83;;
5279;SDS011;2663;53.588;10.010;2023-03-12T07:01:56;11.73;;;6.50;;
5279;SDS011;2663;53.588;10.010;2023-03-12T07:04:23;11.20;;;7.00;;
5279;SDS011;2663;53.588;10.010;2023-03-12T07:06:50;16.07;;;6.10;;
5279;SDS011;2663;53.588;10.010;2023-03-12T07:09:17;15.40;;;6.40;;
5279;SDS011;2663;53.588;10.010;2023-03-12T07:11:44;12.57;;;5.47;;
5279;SDS011;2663;53.588;10.010;2023-03-12T07:14:12;11.90;;;5.93;;
5279;SDS011;2663;53.588;10.010;2023-03-12T07:16:39;12.40;;;6.77;;
5279;SDS011;2663;53.588;10.010;2023-03-12T07:19:05;10.83;;;5.87;;
5279;SDS011;2663;53.588;10.010;2023-03-12T07:21:32;11.03;;;5.87;;
5279;SDS011;2663;53.588;10.010;2023-03-12T07:23:59;6.37;;;5.13;;
5279;SDS011;2663;53.588;10.010;2023-03-12T07:26:26;7.70;;;5.80;;
5279;SDS011;2663;53.588;10.010;2023-03-12T07:28:52;8.23;;;5.70;;
5279;SDS011;2663;53.588;10.010;2023-03-12T07:31:19;8.47;;;6.30;;
5279;SDS011;2663;53.588;10.010;2023-03-12T07:33:46;9.00;;;5.73;;
5279;SDS011;2663;53.588;10.010;2023-03-12T07:36:13;18.40;;;5.93;;
5279;SDS011;2663;53.588;10.010;2023-03-12T07:38:40;6.60;;;5.00;;
5279;SDS011;2663;53.588;10.010;2023-03-12T07:41:07;13.10;;;5.40;;
5279;SDS011;2663;53.588;10.010;2023-03-12T07:43:33;5.90;;;4.90;;
5279;SDS011;2663;53.588;10.010;2023-03-12T07:46:00;10.60;;;5.40;;
5279;SDS011;2663;53.588;10.010;2023-03-12T07:48:28;10.90;;;5.80;;
5279;SDS011;2663;53.588;10.010;2023-03-12T07:50:54;10.57;;;5.40;;
5279;SDS011;2663;53.588;10.010;2023-03-12T07:53:21;11.53;;;5.50;;
5279;SDS011;2663;53.588;10.010;2023-03-12T07:55:48;11.43;;;6.83;;
5279;SDS011;2663;53.588;10.010;2023-03-12T07:58:15;7.97;;;4.53;;
5279;SDS011;2663;53.588;10.010;2023-03-12T08:00:42;8.83;;;4.87;;
5279;SDS011;2663;53.588;10.010;2023-03-12T08:03:10;4.40;;;3.90;;
5279;SDS011;2663;53.588;10.010;2023-03-12T08:05:37;4.00;;;3.70;;
5279;SDS011;2663;53.588;10.010;2023-03-12T08:08:04;9.87;;;4.00;;
5279;SDS011;2663;53.588;10.010;2023-03-12T08:10:31;6.30;;;4.77;;
5279;SDS011;2663;53.588;10.010;2023-03-12T08:12:58;9.70;;;4.10;;
5279;SDS011;2663;53.588;10.010;2023-03-12T08:15:24;6.87;;;4.30;;
5279;SDS011;2663;53.588;10.010;2023-03-12T08:17:51;9.43;;;4.50;;
5279;SDS011;2663;53.588;10.010;2023-03-12T08:20:18;13.03;;;4.70;;
5279;SDS011;2663;53.588;10.010;2023-03-12T08:22:44;8.83;;;4.53;;
5279;SDS011;2663;53.588;10.010;2023-03-12T08:25:11;9.30;;;4.40;;
5279;SDS011;2663;53.588;10.010;2023-03-12T08:27:38;6.23;;;3.73;;
5279;SDS011;2663;53.588;10.010;2023-03-12T08:30:05;5.23;;;4.40;;
5279;SDS011;2663;53.588;10.010;2023-03-12T08:32:32;9.13;;;4.40;;
5279;SDS011;2663;53.588;10.010;2023-03-12T08:34:59;4.57;;;4.10;;
5279;SDS011;2663;53.588;10.010;2023-03-12T08:37:26;14.33;;;4.77;;
5279;SDS011;2663;53.588;10.010;2023-03-12T08:39:53;9.53;;;4.20;;
5279;SDS011;2663;53.588;10.010;2023-03-12T08:42:20;10.77;;;4.40;;
5279;SDS011;2663;53.588;10.010;2023-03-12T08:44:46;8.83;;;4.23;;
5279;SDS011;2663;53.588;10.010;2023-03-12T08:47:13;5.17;;;4.17;;
5279;SDS011;2663;53.588;10.010;2023-03-12T08:49:40;3.70;;;3.33;;
5279;SDS011;2663;53.588;10.010;2023-03-12T08:52:06;5.13;;;3.63;;
5279;SDS011;2663;53.588;10.010;2023-03-12T08:54:33;12.20;;;4.23;;
5279;SDS011;2663;53.588;10.010;2023-03-12T08:57:00;8.57;;;4.20;;
5279;SDS011;2663;53.588;10.010;2023-03-12T08:59:26;8.10;;;4.73;;
5279;SDS011;2663;53.588;10.010;2023-03-12T09:01:53;7.73;;;4.13;;
5279;SDS011;2663;53.588;10.010;2023-03-12T09:04:20;4.80;;;3.80;;
5279;SDS011;2663;53.588;10.010;2023-03-12T09:06:47;8.50;;;5.07;;
5279;SDS011;2663;53.588;10.010;2023-03-12T09:09:13;4.17;;;3.50;;
5279;SDS011;2663;53.588;10.010;2023-03-12T09:11:40;8.30;;;3.63;;
5279;SDS011;2663;53.588;10.010;2023-03-12T09:14:07;7.03;;;4.23;;
5279;SDS011;2663;53.588;10.010;2023-03-12T09:16:54;8.13;;;4.00;;
5279;SDS011;2663;53.588;10.010;2023-03-12T09:19:21;9.80;;;3.70;;
5279;SDS011;2663;53.588;10.010;2023-03-12T09:21:48;4.57;;;3.33;;
5279;SDS011;2663;53.588;10.010;2023-03-12T09:24:14;5.43;;;3.53;;
5279;SDS011;2663;53.588;10.010;2023-03-12T09:26:41;4.73;;;3.63;;
5279;SDS011;2663;53.588;10.010;2023-03-12T09:29:07;7.27;;;4.57;;
5279;SDS011;2663;53.588;10.010;2023-03-12T09:31:34;7.83;;;3.87;;
5279;SDS011;2663;53.588;10.010;2023-03-12T09:34:01;6.40;;;3.73;;
5279;SDS011;2663;53.588;10.010;2023-03-12T09:36:29;7.40;;;4.70;;
5279;SDS011;2663;53.588;10.010;2023-03-12T09:38:56;10.73;;;5.10;;
5279;SDS011;2663;53.588;10.010;2023-03-12T09:41:27;10.30;;;4.23;;
5279;SDS011;2663;53.588;10.010;2023-03-12T09:43:57;8.40;;;3.93;;
5279;SDS011;2663;53.588;10.010;2023-03-12T09:49:34;10.67;;;4.07;;
5279;SDS011;2663;53.588;10.010;2023-03-12T09:52:12;11.77;;;4.03;;
5279;SDS011;2663;53.588;10.010;2023-03-12T09:54:51;3.70;;;3.20;;
5279;SDS011;2663;53.588;10.010;2023-03-12T09:57:28;6.07;;;3.70;;
5279;SDS011;2663;53.588;10.010;2023-03-12T09:59:55;8.17;;;3.43;;
5279;SDS011;2663;53.588;10.010;2023-03-12T10:03:09;6.60;;;3.50;;
5279;SDS011;2663;53.588;10.010;2023-03-12T10:19:29;14.77;;;6.80;;
5279;SDS011;2663;53.588;10.010;2023-03-12T10:27:21;8.07;;;4.50;;
5279;SDS011;2663;53.588;10.010;2023-03-12T10:29:50;5.13;;;3.80;;
5279;SDS011;2663;53.588;10.010;2023-03-12T10:32:20;2.70;;;2.60;;
5279;SDS011;2663;53.588;10.010;2023-03-12T10:35:14;4.93;;;2.67;;
5279;SDS011;2663;53.588;10.010;2023-03-12T10:37:51;5.53;;;3.10;;
5279;SDS011;2663;53.588;10.010;2023-03-12T10:40:26;5.83;;;3.07;;
5279;SDS011;2663;53.588;10.010;2023-03-12T10:42:59;3.47;;;2.50;;
5279;SDS011;2663;53.588;10.010;2023-03-12T10:45:32;6.33;;;3.17;;
5279;SDS011;2663;53.588;10.010;2023-03-12T10:48:21;5.13;;;2.97;;
5279;SDS011;2663;53.588;10.010;2023-03-12T10:51:00;5.90;;;2.87;;
5279;SDS011;2663;53.588;10.010;2023-03-12T10:53:41;6.10;;;2.80;;
5279;SDS011;2663;53.588;10.010;2023-03-12T10:56:14;3.20;;;2.87;;
5279;SDS011;2663;53.588;10.010;2023-03-12T10:58:47;6.53;;;3.20;;
5279;SDS011;2663;53.588;10.010;2023-03-12T11:01:28;3.90;;;2.97;;
5279;SDS011;2663;53.588;10.010;2023-03-12T11:04:14;3.60;;;2.53;;
5279;SDS011;2663;53.588;10.010;2023-03-12T11:07:01;4.60;;;3.07;;
5279;SDS011;2663;53.588;10.010;2023-03-12T11:09:30;3.13;;;2.83;;
5279;SDS011;2663;53.588;10.010;2023-03-12T11:11:57;3.90;;;2.60;;
5279;SDS011;2663;53.588;10.010;2023-03-12T11:14:24;6.10;;;2.90;;
5279;SDS011;2663;53.588;10.010;2023-03-12T11:16:53;5.17;;;2.27;;
5279;SDS011;2663;53.588;10.010;2023-03-12T11:19:32;6.83;;;3.67;;
5279;SDS011;2663;53.588;10.010;2023-03-12T11:22:06;4.83;;;2.97;;
5279;SDS011;2663;53.588;10.010;2023-03-12T11:24:42;7.07;;;3.20;;
5279;SDS011;2663;53.588;10.010;2023-03-12T11:27:39;7.70;;;3.00;;
5279;SDS011;2663;53.588;10.010;2023-03-12T11:30:16;6.47;;;2.83;;
5279;SDS011;2663;53.588;10.010;2023-03-12T11:32:48;5.00;;;2.63;;
5279;SDS011;2663;53.588;10.010;2023-03-12T11:35:16;5.27;;;3.00;;
5279;SDS011;2663;53.588;10.010;2023-03-12T11:37:59;4.83;;;2.50;;
5279;SDS011;2663;53.588;10.010;2023-03-12T11:46:20;5.03;;;2.83;;
5279;SDS011;2663;53.588;10.010;2023-03-12T11:48:55;12.70;;;2.80;;
5279;SDS011;2663;53.588;10.010;2023-03-12T11:51:45;10.73;;;2.73;;
5279;SDS011;2663;53.588;10.010;2023-03-12T11:54:31;7.87;;;2.97;;
5279;SDS011;2663;53.588;10.010;2023-03-12T11:57:32;6.80;;;2.37;;
5279;SDS011;2663;53.588;10.010;2023-03-12T12:08:03;6.43;;;2.53;;
5279;SDS011;2663;53.588;10.010;2023-03-12T12:10:57;3.83;;;2.53;;
5279;SDS011;2663;53.588;10.010;2023-03-12T12:16:16;8.03;;;3.50;;
5279;SDS011;2663;53.588;10.010;2023-03-12T12:22:27;2.50;;;2.20;;
5279;SDS011;2663;53.588;10.010;2023-03-12T12:30:41;5.33;;;2.47;;
5279;SDS011;2663;53.588;10.010;2023-03-12T12:36:10;2.20;;;1.90;;
5279;SDS011;2663;53.588;10.010;2023-03-12T12:38:39;4.10;;;1.87;;
5279;SDS011;2663;53.588;10.010;2023-03-12T12:41:21;6.40;;;2.40;;
5279;SDS011;2663;53.588;10.010;2023-03-12T12:43:56;5.50;;;1.67;;
5279;SDS011;2663;53.588;10.010;2023-03-12T12:46:29;8.90;;;2.60;;
5279;SDS011;2663;53.588;10.010;2023-03-12T12:51:47;3.80;;;1.80;;
5279;SDS011;2663;53.588;10.010;2023-03-12T12:54:46;5.00;;;1.60;;
5279;SDS011;2663;53.588;10.010;2023-03-12T13:02:40;7.50;;;2.77;;
5279;SDS011;2663;53.588;10.010;2023-03-12T13:05:53;2.30;;;1.70;;
5279;SDS011;2663;53.588;10.010;2023-03-12T13:08:02;2.10;;;1.27;;
5279;SDS011;2663;53.588;10.010;2023-03-12T13:15:35;2.30;;;1.60;;
5279;SDS011;2663;53.588;10.010;2023-03-12T13:33:58;5.27;;;2.30;;
5279;SDS011;2663;53.588;10.010;2023-03-12T13:36:45;3.40;;;1.40;;
5279;SDS011;2663;53.588;10.010;2023-03-12T13:49:45;4.33;;;1.17;;
5279;SDS011;2663;53.588;10.010;2023-03-12T13:52:54;4.90;;;2.00;;
5279;SDS011;2663;53.588;10.010;2023-03-12T13:55:26;3.73;;;1.90;;
5279;SDS011;2663;53.588;10.010;2023-03-12T13:57:55;5.17;;;2.40;;
5279;SDS011;2663;53.588;10.010;2023-03-12T14:00:26;5.30;;;2.33;;
5279;SDS011;2663;53.588;10.010;2023-03-12T14:06:06;7.30;;;2.30;;
5279;SDS011;2663;53.588;10.010;2023-03-12T14:14:53;4.60;;;1.97;;
5279;SDS011;2663;53.588;10.010;2023-03-12T14:17:41;9.20;;;1.87;;
5279;SDS011;2663;53.588;10.010;2023-03-12T14:22:47;4.90;;;1.67;;
5279;SDS011;2663;53.588;10.010;2023-03-12T14:25:34;5.10;;;2.00;;
5279;SDS011;2663;53.588;10.010;2023-03-12T14:28:09;2.23;;;2.03;;
5279;SDS011;2663;53.588;10.010;2023-03-12T14:30:40;5.50;;;2.00;;
5279;SDS011;2663;53.588;10.010;2023-03-12T14:33:15;7.57;;;1.60;;
5279;SDS011;2663;53.588;10.010;2023-03-12T14:35:49;1.70;;;1.60;;
5279;SDS011;2663;53.588;10.010;2023-03-12T14:38:25;1.70;;;1.60;;
5279;SDS011;2663;53.588;10.010;2023-03-12T14:41:00;1.70;;;1.60;;
5279;SDS011;2663;53.588;10.010;2023-03-12T14:43:38;4.57;;;2.10;;
5279;SDS011;2663;53.588;10.010;2023-03-12T14:46:43;5.87;;;1.60;;
5279;SDS011;2663;53.588;10.010;2023-03-12T14:48:59;2.77;;;1.73;;
5279;SDS011;2663;53.588;10.010;2023-03-12T14:51:27;7.60;;;1.60;;
5279;SDS011;2663;53.588;10.010;2023-03-12T14:53:55;2.73;;;2.20;;
5279;SDS011;2663;53.588;10.010;2023-03-12T14:56:28;2.13;;;1.90;;
5279;SDS011;2663;53.588;10.010;2023-03-12T14:58:58;7.23;;;2.13;;
5279;SDS011;2663;53.588;10.010;2023-03-12T15:01:31;3.40;;;1.87;;
5279;SDS011;2663;53.588;10.010;2023-03-12T15:04:00;1.80;;;1.70;;
5279;SDS011;2663;53.588;10.010;2023-03-12T15:06:34;3.07;;;2.00;;
5279;SDS011;2663;53.588;10.010;2023-03-12T15:09:06;3.13;;;2.00;;
5279;SDS011;2663;53.588;10.010;2023-03-12T15:11:33;4.90;;;2.20;;
5279;SDS011;2663;53.588;10.010;2023-03-12T15:14:03;10.97;;;2.30;;
5279;SDS011;2663;53.588;10.010;2023-03-12T15:16:39;2.30;;;1.97;;
5279;SDS011;2663;53.588;10.010;2023-03-12T15:19:10;7.43;;;2.40;;
5279;SDS011;2663;53.588;10.010;2023-03-12T15:21:38;5.53;;;1.57;;
5279;SDS011;2663;53.588;10.010;2023-03-12T15:24:05;6.90;;;3.50;;
5279;SDS011;2663;53.588;10.010;2023-03-12T15:26:37;2.23;;;2.13;;
5279;SDS011;2663;53.588;10.010;2023-03-12T15:29:24;2.60;;;1.97;;
5279;SDS011;2663;53.588;10.010;2023-03-12T15:31:54;3.20;;;2.37;;
5279;SDS011;2663;53.588;10.010;2023-03-12T15:36:57;4.47;;;2.50;;
5279;SDS011;2663;53.588;10.010;2023-03-12T15:42:00;2.70;;;2.50;;
5279;SDS011;2663;53.588;10.010;2023-03-12T15:45:20;2.17;;;1.97;;
5279;SDS011;2663;53.588;10.010;2023-03-12T15:47:29;2.50;;;2.13;;
5279;SDS011;2663;53.588;10.010;2023-03-12T15:49:58;2.87;;;2.67;;
5279;SDS011;2663;53.588;10.010;2023-03-12T15:52:30;4.33;;;2.70;;
5279;SDS011;2663;53.588;10.010;2023-03-12T15:57:47;5.43;;;3.10;;
5279;SDS011;2663;53.588;10.010;2023-03-12T16:02:51;5.07;;;3.40;;
5279;SDS011;2663;53.588;10.010;2023-03-12T16:05:32;7.60;;;4.10;;
5279;SDS011;2663;53.588;10.010;2023-03-12T16:08:14;4.50;;;3.30;;
5279;SDS011;2663;53.588;10.010;2023-03-12T16:10:47;5.27;;;4.00;;
5279;SDS011;2663;53.588;10.010;2023-03-12T16:13:15;5.33;;;3.60;;
5279;SDS011;2663;53.588;10.010;2023-03-12T16:15:45;5.30;;;3.97;;
5279;SDS011;2663;53.588;10.010;2023-03-12T16:18:17;5.43;;;4.20;;
5279;SDS011;2663;53.588;10.010;2023-03-12T16:20:45;3.90;;;3.27;;
5279;SDS011;2663;53.588;10.010;2023-03-12T16:23:13;2.93;;;2.73;;
5279;SDS011;2663;53.588;10.010;2023-03-12T16:25:43;7.73;;;4.37;;
5279;SDS011;2663;53.588;10.010;2023-03-12T16:28:13;5.00;;;3.37;;
5279;SDS011;2663;53.588;10.010;2023-03-12T16:30:42;6.37;;;3.50;;
5279;SDS011;2663;53.588;10.010;2023-03-12T16:33:12;5.17;;;3.67;;
5279;SDS011;2663;53.588;10.010;2023-03-12T16:35:41;3.90;;;3.50;;
5279;SDS011;2663;53.588;10.010;2023-03-12T16:38:08;4.57;;;3.60;;
5279;SDS011;2663;53.588;10.010;2023-03-12T16:40:36;5.43;;;4.20;;
5279;SDS011;2663;53.588;10.010;2023-03-12T16:43:05;7.20;;;3.90;;
5279;SDS011;2663;53.588;10.010;2023-03-12T16:45:33;4.33;;;3.73;;
5279;SDS011;2663;53.588;10.010;2023-03-12T16:48:02;14.53;;;4.87;;
5279;SDS011;2663;53.588;10.010;2023-03-12T16:50:30;3.87;;;3.53;;
5279;SDS011;2663;53.588;10.010;2023-03-12T16:52:57;11.00;;;3.77;;
5279;SDS011;2663;53.588;10.010;2023-03-12T16:55:25;6.43;;;4.60;;
5279;SDS011;2663;53.588;10.010;2023-03-12T16:57:55;4.33;;;3.70;;
5279;SDS011;2663;53.588;10.010;2023-03-12T17:00:29;9.20;;;4.33;;
5279;SDS011;2663;53.588;10.010;2023-03-12T17:02:58;4.73;;;4.10;;
5279;SDS011;2663;53.588;10.010;2023-03-12T17:05:26;4.20;;;3.47;;
5279;SDS011;2663;53.588;10.010;2023-03-12T17:07:54;5.90;;;4.37;;
5279;SDS011;2663;53.588;10.010;2023-03-12T17:10:21;5.87;;;4.47;;
5279;SDS011;2663;53.588;10.010;2023-03-12T17:12:48;4.10;;;3.80;;
5279;SDS011;2663;53.588;10.010;2023-03-12T17:15:18;4.87;;;4.37;;